Vremea acum in Brasov - Romania

Vrei sa afli care e starea vremii acum in Brasov - Romania? Dorim sa iti furnizam starea vremii pentru Brasov - Romania. Starea vremii Brasov - Romania pentru astazi.

Vremea acum in Brasov

Temperatura: 20.7 °C

Este: Senin
Se simte ca: 20.7 °C
Innorat: 16 %
Precipitatii: %
Presiune atmosferica: 1012 hPa
Umiditate: 34%
Vizibilitate: 10 km
Vantul bate din NW cu 6.1 km/h

Evolutia vremii in Brasov pe ore

Ora: 13:00
Temperatura: °C
Sansa de precipitatii: %
Ora Descriere Temp Se simte Precipitatii Umiditate Vant
00:00Senin6.6°5.8°0%82%SW 5.4 KM/H
01:00Senin6.1°5.3°0%84%SW 5 KM/H
02:00Senin5.8°0%85%SW 5 KM/H
03:00Senin5.7°4.9°0%85%SW 5 KM/H
04:00Senin5.6°5.2°0%85%SW 4 KM/H
05:00Senin5.4°0%84%SSW 4 KM/H
06:00Senin5.4°5.2°0%83%SW 3.6 KM/H
07:00Senin7.6°7.6°0%75%SW 2.5 KM/H
08:00Senin10.9°10.9°0%61%NW 2.5 KM/H
09:00Senin13.6°14.4°0%49%NW 3.2 KM/H
10:00Senin15.8°15.8°0%40%NW 5.8 KM/H
11:00Partial innorat18°18°0%36%NW 6.1 KM/H
12:00Senin19.6°19.6°0%35%NW 6.1 KM/H
13:00Senin20.7°20.7°0%34%NW 6.1 KM/H
14:00Partial innorat21.1°21.1°0%35%NW 7.6 KM/H
15:00Partial innorat21.2°21.2°0%37%NW 7.9 KM/H
16:00Partial innorat19.6°19.6°0%44%NW 5.4 KM/H
17:00Partial innorat19.7°19.7°0%47%NNW 5.8 KM/H
18:00Senin16.8°16.8°0%57%W 1.1 KM/H
19:00Senin15.2°15.2°0%59%S 6.5 KM/H
20:00Partial innorat13.9°13.7°0%61%S 7.6 KM/H
21:00Senin14.3°14.2°0%60%S 6.8 KM/H
22:00Senin14°14.1°0%61%S 5.8 KM/H
23:00Partial innorat13.2°13.1°0%64%SSW 6.5 KM/H




tutorials